sensor_id;sensor_type;location;lat;lon;timestamp;P1;durP1;ratioP1;P2;durP2;ratioP2
74044;SDS011;62389;51.412;5.436;2022-07-23T00:02:11;7.70;;;4.63;;
74044;SDS011;62389;51.412;5.436;2022-07-23T00:04:36;7.30;;;4.20;;
74044;SDS011;62389;51.412;5.436;2022-07-23T00:07:01;6.57;;;4.20;;
74044;SDS011;62389;51.412;5.436;2022-07-23T00:09:26;10.95;;;4.68;;
74044;SDS011;62389;51.412;5.436;2022-07-23T00:14:18;7.20;;;4.10;;
74044;SDS011;62389;51.412;5.436;2022-07-23T00:16:43;7.73;;;4.37;;
74044;SDS011;62389;51.412;5.436;2022-07-23T00:19:09;8.73;;;4.57;;
74044;SDS011;62389;51.412;5.436;2022-07-23T00:21:34;5.93;;;4.03;;
74044;SDS011;62389;51.412;5.436;2022-07-23T00:23:59;9.13;;;4.90;;
74044;SDS011;62389;51.412;5.436;2022-07-23T00:26:24;9.57;;;4.87;;
74044;SDS011;62389;51.412;5.436;2022-07-23T00:28:50;6.63;;;4.67;;
74044;SDS011;62389;51.412;5.436;2022-07-23T00:31:15;6.55;;;4.40;;
74044;SDS011;62389;51.412;5.436;2022-07-23T00:33:40;6.80;;;4.20;;
74044;SDS011;62389;51.412;5.436;2022-07-23T00:36:06;8.30;;;4.90;;
74044;SDS011;62389;51.412;5.436;2022-07-23T00:38:31;9.65;;;4.22;;
74044;SDS011;62389;51.412;5.436;2022-07-23T00:40:56;7.40;;;4.50;;
74044;SDS011;62389;51.412;5.436;2022-07-23T00:43:21;8.27;;;4.30;;
74044;SDS011;62389;51.412;5.436;2022-07-23T00:45:47;6.18;;;4.30;;
74044;SDS011;62389;51.412;5.436;2022-07-23T00:48:12;8.60;;;4.03;;
74044;SDS011;62389;51.412;5.436;2022-07-23T00:50:37;7.60;;;4.30;;
74044;SDS011;62389;51.412;5.436;2022-07-23T00:53:03;8.57;;;5.17;;
74044;SDS011;62389;51.412;5.436;2022-07-23T00:55:28;7.35;;;4.80;;
74044;SDS011;62389;51.412;5.436;2022-07-23T00:57:54;6.53;;;4.63;;
74044;SDS011;62389;51.412;5.436;2022-07-23T01:00:20;8.60;;;5.03;;
74044;SDS011;62389;51.412;5.436;2022-07-23T01:02:45;6.30;;;4.50;;
74044;SDS011;62389;51.412;5.436;2022-07-23T01:05:10;6.07;;;4.33;;
74044;SDS011;62389;51.412;5.436;2022-07-23T01:07:37;12.93;;;5.20;;
74044;SDS011;62389;51.412;5.436;2022-07-23T01:10:02;11.77;;;4.88;;
74044;SDS011;62389;51.412;5.436;2022-07-23T01:12:28;8.05;;;4.07;;
74044;SDS011;62389;51.412;5.436;2022-07-23T01:14:56;8.20;;;4.70;;
74044;SDS011;62389;51.412;5.436;2022-07-23T01:17:22;8.65;;;4.10;;
74044;SDS011;62389;51.412;5.436;2022-07-23T01:19:47;6.57;;;4.45;;
74044;SDS011;62389;51.412;5.436;2022-07-23T01:22:12;7.27;;;4.60;;
74044;SDS011;62389;51.412;5.436;2022-07-23T01:24:39;7.75;;;4.80;;
74044;SDS011;62389;51.412;5.436;2022-07-23T01:27:04;9.37;;;5.03;;
74044;SDS011;62389;51.412;5.436;2022-07-23T01:29:30;7.90;;;5.07;;
74044;SDS011;62389;51.412;5.436;2022-07-23T01:31:56;9.60;;;5.05;;
74044;SDS011;62389;51.412;5.436;2022-07-23T01:34:21;7.27;;;4.03;;
74044;SDS011;62389;51.412;5.436;2022-07-23T01:36:46;8.30;;;4.43;;
74044;SDS011;62389;51.412;5.436;2022-07-23T01:39:12;5.90;;;4.57;;
74044;SDS011;62389;51.412;5.436;2022-07-23T01:41:37;7.13;;;4.80;;
74044;SDS011;62389;51.412;5.436;2022-07-23T01:44:02;6.85;;;4.75;;
74044;SDS011;62389;51.412;5.436;2022-07-23T01:46:27;6.80;;;4.80;;
74044;SDS011;62389;51.412;5.436;2022-07-23T01:48:53;7.10;;;4.90;;
74044;SDS011;62389;51.412;5.436;2022-07-23T01:51:18;9.05;;;5.20;;
74044;SDS011;62389;51.412;5.436;2022-07-23T01:53:43;10.33;;;4.10;;
74044;SDS011;62389;51.412;5.436;2022-07-23T01:56:08;8.90;;;5.60;;
74044;SDS011;62389;51.412;5.436;2022-07-23T01:58:34;9.93;;;5.00;;
74044;SDS011;62389;51.412;5.436;2022-07-23T02:00:59;8.07;;;4.97;;
74044;SDS011;62389;51.412;5.436;2022-07-23T02:03:25;6.85;;;4.57;;
74044;SDS011;62389;51.412;5.436;2022-07-23T02:05:50;5.65;;;4.70;;
74044;SDS011;62389;51.412;5.436;2022-07-23T02:08:15;6.23;;;4.37;;
74044;SDS011;62389;51.412;5.436;2022-07-23T02:10:41;8.43;;;4.85;;
74044;SDS011;62389;51.412;5.436;2022-07-23T02:13:06;7.55;;;4.97;;
74044;SDS011;62389;51.412;5.436;2022-07-23T02:15:32;7.63;;;4.70;;
74044;SDS011;62389;51.412;5.436;2022-07-23T02:17:57;7.32;;;4.55;;
74044;SDS011;62389;51.412;5.436;2022-07-23T02:20:22;8.73;;;5.20;;
74044;SDS011;62389;51.412;5.436;2022-07-23T02:22:48;8.73;;;5.40;;
74044;SDS011;62389;51.412;5.436;2022-07-23T02:25:13;7.57;;;4.88;;
74044;SDS011;62389;51.412;5.436;2022-07-23T02:27:38;6.47;;;4.87;;
74044;SDS011;62389;51.412;5.436;2022-07-23T02:30:04;7.33;;;5.00;;
74044;SDS011;62389;51.412;5.436;2022-07-23T02:32:29;6.43;;;5.13;;
74044;SDS011;62389;51.412;5.436;2022-07-23T02:34:55;7.35;;;5.45;;
74044;SDS011;62389;51.412;5.436;2022-07-23T02:37:20;9.27;;;5.15;;
74044;SDS011;62389;51.412;5.436;2022-07-23T02:39:46;6.95;;;5.32;;
74044;SDS011;62389;51.412;5.436;2022-07-23T02:42:13;6.22;;;4.80;;
74044;SDS011;62389;51.412;5.436;2022-07-23T02:44:38;8.18;;;5.18;;
74044;SDS011;62389;51.412;5.436;2022-07-23T02:47:03;5.97;;;4.80;;
74044;SDS011;62389;51.412;5.436;2022-07-23T02:49:29;6.65;;;5.10;;
74044;SDS011;62389;51.412;5.436;2022-07-23T02:51:54;7.37;;;5.27;;
74044;SDS011;62389;51.412;5.436;2022-07-23T02:54:19;6.67;;;5.37;;
74044;SDS011;62389;51.412;5.436;2022-07-23T02:56:45;6.93;;;4.93;;
74044;SDS011;62389;51.412;5.436;2022-07-23T02:59:10;7.60;;;4.73;;
74044;SDS011;62389;51.412;5.436;2022-07-23T03:01:35;7.70;;;5.25;;
74044;SDS011;62389;51.412;5.436;2022-07-23T03:04:01;7.85;;;5.25;;
74044;SDS011;62389;51.412;5.436;2022-07-23T03:06:26;7.63;;;5.10;;
74044;SDS011;62389;51.412;5.436;2022-07-23T03:08:51;6.80;;;5.33;;
74044;SDS011;62389;51.412;5.436;2022-07-23T03:11:17;7.20;;;4.63;;
74044;SDS011;62389;51.412;5.436;2022-07-23T03:13:42;7.40;;;5.30;;
74044;SDS011;62389;51.412;5.436;2022-07-23T03:16:07;8.23;;;5.93;;
74044;SDS011;62389;51.412;5.436;2022-07-23T03:18:32;8.77;;;5.97;;
74044;SDS011;62389;51.412;5.436;2022-07-23T03:20:58;9.63;;;6.50;;
74044;SDS011;62389;51.412;5.436;2022-07-23T03:23:23;8.43;;;6.32;;
74044;SDS011;62389;51.412;5.436;2022-07-23T03:25:48;10.63;;;7.07;;
74044;SDS011;62389;51.412;5.436;2022-07-23T03:28:14;10.57;;;7.57;;
74044;SDS011;62389;51.412;5.436;2022-07-23T03:30:40;10.50;;;7.85;;
74044;SDS011;62389;51.412;5.436;2022-07-23T03:33:06;9.63;;;6.88;;
74044;SDS011;62389;51.412;5.436;2022-07-23T03:35:31;12.50;;;8.10;;
74044;SDS011;62389;51.412;5.436;2022-07-23T03:37:56;11.17;;;7.97;;
74044;SDS011;62389;51.412;5.436;2022-07-23T03:40:21;11.07;;;8.43;;
74044;SDS011;62389;51.412;5.436;2022-07-23T03:42:46;10.57;;;8.13;;
74044;SDS011;62389;51.412;5.436;2022-07-23T03:45:12;11.50;;;8.10;;
74044;SDS011;62389;51.412;5.436;2022-07-23T03:47:37;12.70;;;8.75;;
74044;SDS011;62389;51.412;5.436;2022-07-23T03:50:03;12.73;;;8.18;;
74044;SDS011;62389;51.412;5.436;2022-07-23T03:52:29;12.60;;;8.45;;
74044;SDS011;62389;51.412;5.436;2022-07-23T03:54:54;10.80;;;8.33;;
74044;SDS011;62389;51.412;5.436;2022-07-23T03:57:19;12.33;;;8.40;;
74044;SDS011;62389;51.412;5.436;2022-07-23T03:59:45;15.47;;;9.43;;
74044;SDS011;62389;51.412;5.436;2022-07-23T04:02:10;14.20;;;8.87;;
74044;SDS011;62389;51.412;5.436;2022-07-23T04:04:35;11.03;;;9.40;;
74044;SDS011;62389;51.412;5.436;2022-07-23T04:07:00;14.30;;;8.90;;
74044;SDS011;62389;51.412;5.436;2022-07-23T04:09:26;16.08;;;9.20;;
74044;SDS011;62389;51.412;5.436;2022-07-23T04:11:51;14.57;;;9.43;;
74044;SDS011;62389;51.412;5.436;2022-07-23T04:14:16;13.70;;;10.13;;
74044;SDS011;62389;51.412;5.436;2022-07-23T04:16:42;12.95;;;9.80;;
74044;SDS011;62389;51.412;5.436;2022-07-23T04:19:07;15.60;;;11.57;;
74044;SDS011;62389;51.412;5.436;2022-07-23T04:21:32;15.47;;;10.93;;
74044;SDS011;62389;51.412;5.436;2022-07-23T04:23:58;16.30;;;10.93;;
74044;SDS011;62389;51.412;5.436;2022-07-23T04:26:23;14.52;;;11.32;;
74044;SDS011;62389;51.412;5.436;2022-07-23T04:28:48;14.93;;;10.27;;
74044;SDS011;62389;51.412;5.436;2022-07-23T04:31:13;15.87;;;11.13;;
74044;SDS011;62389;51.412;5.436;2022-07-23T04:33:38;18.77;;;12.00;;
74044;SDS011;62389;51.412;5.436;2022-07-23T04:36:04;18.23;;;11.17;;
74044;SDS011;62389;51.412;5.436;2022-07-23T04:38:29;16.58;;;11.20;;
74044;SDS011;62389;51.412;5.436;2022-07-23T04:40:54;16.47;;;11.27;;
74044;SDS011;62389;51.412;5.436;2022-07-23T04:43:19;16.93;;;11.53;;
74044;SDS011;62389;51.412;5.436;2022-07-23T04:45:47;18.30;;;11.32;;
74044;SDS011;62389;51.412;5.436;2022-07-23T04:48:13;16.10;;;11.50;;
74044;SDS011;62389;51.412;5.436;2022-07-23T04:50:38;15.90;;;10.97;;
74044;SDS011;62389;51.412;5.436;2022-07-23T04:53:03;16.17;;;11.63;;
74044;SDS011;62389;51.412;5.436;2022-07-23T04:55:28;14.80;;;10.48;;
74044;SDS011;62389;51.412;5.436;2022-07-23T04:57:54;15.70;;;9.70;;
74044;SDS011;62389;51.412;5.436;2022-07-23T05:00:19;13.63;;;9.60;;
74044;SDS011;62389;51.412;5.436;2022-07-23T05:02:44;12.97;;;8.70;;
74044;SDS011;62389;51.412;5.436;2022-07-23T05:05:10;14.60;;;8.67;;
74044;SDS011;62389;51.412;5.436;2022-07-23T05:07:35;15.27;;;9.50;;
74044;SDS011;62389;51.412;5.436;2022-07-23T05:10:00;13.77;;;9.07;;
74044;SDS011;62389;51.412;5.436;2022-07-23T05:12:25;12.40;;;8.77;;
74044;SDS011;62389;51.412;5.436;2022-07-23T05:14:50;13.60;;;9.40;;
74044;SDS011;62389;51.412;5.436;2022-07-23T05:17:17;15.35;;;9.90;;
74044;SDS011;62389;51.412;5.436;2022-07-23T05:19:43;13.17;;;8.53;;
74044;SDS011;62389;51.412;5.436;2022-07-23T05:22:08;15.40;;;8.70;;
74044;SDS011;62389;51.412;5.436;2022-07-23T05:24:33;15.37;;;9.47;;
74044;SDS011;62389;51.412;5.436;2022-07-23T05:26:58;13.70;;;9.63;;
74044;SDS011;62389;51.412;5.436;2022-07-23T05:29:23;14.70;;;9.40;;
74044;SDS011;62389;51.412;5.436;2022-07-23T05:31:49;13.73;;;9.87;;
74044;SDS011;62389;51.412;5.436;2022-07-23T05:34:14;14.57;;;9.33;;
74044;SDS011;62389;51.412;5.436;2022-07-23T05:36:39;14.43;;;10.07;;
74044;SDS011;62389;51.412;5.436;2022-07-23T05:39:04;11.93;;;9.23;;
74044;SDS011;62389;51.412;5.436;2022-07-23T05:41:29;10.80;;;8.67;;
74044;SDS011;62389;51.412;5.436;2022-07-23T05:43:55;12.83;;;9.37;;
74044;SDS011;62389;51.412;5.436;2022-07-23T05:46:20;12.20;;;9.53;;
74044;SDS011;62389;51.412;5.436;2022-07-23T05:48:45;13.97;;;10.73;;
74044;SDS011;62389;51.412;5.436;2022-07-23T05:51:21;13.80;;;9.82;;
74044;SDS011;62389;51.412;5.436;2022-07-23T05:53:46;14.02;;;9.43;;
74044;SDS011;62389;51.412;5.436;2022-07-23T05:56:11;13.20;;;10.13;;
74044;SDS011;62389;51.412;5.436;2022-07-23T05:58:36;13.87;;;9.70;;
74044;SDS011;62389;51.412;5.436;2022-07-23T06:01:02;13.83;;;9.90;;
74044;SDS011;62389;51.412;5.436;2022-07-23T06:03:27;14.07;;;10.30;;
74044;SDS011;62389;51.412;5.436;2022-07-23T06:05:52;15.50;;;9.80;;
74044;SDS011;62389;51.412;5.436;2022-07-23T06:08:17;15.17;;;9.63;;
74044;SDS011;62389;51.412;5.436;2022-07-23T06:10:42;12.93;;;10.00;;
74044;SDS011;62389;51.412;5.436;2022-07-23T06:13:08;16.33;;;10.27;;
74044;SDS011;62389;51.412;5.436;2022-07-23T06:15:33;14.93;;;10.02;;
74044;SDS011;62389;51.412;5.436;2022-07-23T06:17:58;15.17;;;10.17;;
74044;SDS011;62389;51.412;5.436;2022-07-23T06:20:23;14.90;;;10.05;;
74044;SDS011;62389;51.412;5.436;2022-07-23T06:22:49;20.52;;;11.15;;
74044;SDS011;62389;51.412;5.436;2022-07-23T06:25:14;13.73;;;9.73;;
74044;SDS011;62389;51.412;5.436;2022-07-23T06:27:41;13.32;;;9.80;;
74044;SDS011;62389;51.412;5.436;2022-07-23T06:30:06;13.83;;;9.33;;
74044;SDS011;62389;51.412;5.436;2022-07-23T06:32:33;11.68;;;8.50;;
74044;SDS011;62389;51.412;5.436;2022-07-23T06:34:58;12.20;;;8.50;;
74044;SDS011;62389;51.412;5.436;2022-07-23T06:37:23;14.30;;;8.30;;
74044;SDS011;62389;51.412;5.436;2022-07-23T06:39:48;10.43;;;7.53;;
74044;SDS011;62389;51.412;5.436;2022-07-23T06:42:14;11.10;;;8.03;;
74044;SDS011;62389;51.412;5.436;2022-07-23T06:44:39;11.68;;;6.43;;
74044;SDS011;62389;51.412;5.436;2022-07-23T06:47:05;9.63;;;6.32;;
74044;SDS011;62389;51.412;5.436;2022-07-23T06:49:30;12.00;;;6.80;;
74044;SDS011;62389;51.412;5.436;2022-07-23T06:51:55;9.10;;;6.43;;
74044;SDS011;62389;51.412;5.436;2022-07-23T06:54:20;7.93;;;5.80;;
74044;SDS011;62389;51.412;5.436;2022-07-23T06:56:46;7.57;;;6.40;;
74044;SDS011;62389;51.412;5.436;2022-07-23T06:59:11;8.17;;;5.83;;
74044;SDS011;62389;51.412;5.436;2022-07-23T07:01:36;10.93;;;6.30;;
74044;SDS011;62389;51.412;5.436;2022-07-23T07:04:02;7.05;;;5.35;;
74044;SDS011;62389;51.412;5.436;2022-07-23T07:06:27;7.97;;;5.35;;
74044;SDS011;62389;51.412;5.436;2022-07-23T07:08:52;6.70;;;5.23;;
74044;SDS011;62389;51.412;5.436;2022-07-23T07:11:17;9.48;;;5.50;;
74044;SDS011;62389;51.412;5.436;2022-07-23T07:13:43;10.17;;;5.10;;
74044;SDS011;62389;51.412;5.436;2022-07-23T07:16:08;9.77;;;5.23;;
74044;SDS011;62389;51.412;5.436;2022-07-23T07:18:33;7.57;;;5.65;;
74044;SDS011;62389;51.412;5.436;2022-07-23T07:20:58;9.17;;;5.23;;
74044;SDS011;62389;51.412;5.436;2022-07-23T07:23:24;8.07;;;5.03;;
74044;SDS011;62389;51.412;5.436;2022-07-23T07:25:49;7.53;;;4.70;;
74044;SDS011;62389;51.412;5.436;2022-07-23T07:28:14;7.30;;;5.10;;
74044;SDS011;62389;51.412;5.436;2022-07-23T07:30:39;8.93;;;5.40;;
74044;SDS011;62389;51.412;5.436;2022-07-23T07:33:05;7.47;;;4.60;;
74044;SDS011;62389;51.412;5.436;2022-07-23T07:35:30;8.70;;;4.65;;
74044;SDS011;62389;51.412;5.436;2022-07-23T07:37:57;5.90;;;4.50;;
74044;SDS011;62389;51.412;5.436;2022-07-23T07:40:22;6.63;;;4.53;;
74044;SDS011;62389;51.412;5.436;2022-07-23T07:42:48;10.75;;;4.18;;
74044;SDS011;62389;51.412;5.436;2022-07-23T07:45:13;8.00;;;5.32;;
74044;SDS011;62389;51.412;5.436;2022-07-23T07:47:39;8.52;;;5.32;;
74044;SDS011;62389;51.412;5.436;2022-07-23T07:50:04;7.38;;;4.30;;
74044;SDS011;62389;51.412;5.436;2022-07-23T07:52:29;6.65;;;4.25;;
74044;SDS011;62389;51.412;5.436;2022-07-23T07:54:55;6.87;;;3.63;;
74044;SDS011;62389;51.412;5.436;2022-07-23T07:57:20;8.53;;;4.10;;
74044;SDS011;62389;51.412;5.436;2022-07-23T07:59:45;6.70;;;4.10;;
74044;SDS011;62389;51.412;5.436;2022-07-23T08:02:10;6.63;;;4.57;;
74044;SDS011;62389;51.412;5.436;2022-07-23T08:04:35;6.30;;;4.20;;
74044;SDS011;62389;51.412;5.436;2022-07-23T08:07:01;7.17;;;4.13;;
74044;SDS011;62389;51.412;5.436;2022-07-23T08:09:26;9.37;;;4.77;;
74044;SDS011;62389;51.412;5.436;2022-07-23T08:11:51;8.07;;;4.47;;
74044;SDS011;62389;51.412;5.436;2022-07-23T08:14:16;9.73;;;4.67;;
74044;SDS011;62389;51.412;5.436;2022-07-23T08:16:42;6.95;;;4.60;;
74044;SDS011;62389;51.412;5.436;2022-07-23T08:19:07;7.80;;;3.53;;
74044;SDS011;62389;51.412;5.436;2022-07-23T08:21:32;8.47;;;4.33;;
74044;SDS011;62389;51.412;5.436;2022-07-23T08:23:57;7.17;;;4.13;;
74044;SDS011;62389;51.412;5.436;2022-07-23T08:26:23;8.03;;;3.80;;
74044;SDS011;62389;51.412;5.436;2022-07-23T08:28:48;5.47;;;3.77;;
74044;SDS011;62389;51.412;5.436;2022-07-23T08:31:13;6.47;;;3.67;;
74044;SDS011;62389;51.412;5.436;2022-07-23T08:33:40;6.68;;;4.03;;
74044;SDS011;62389;51.412;5.436;2022-07-23T08:36:05;4.07;;;3.00;;
74044;SDS011;62389;51.412;5.436;2022-07-23T08:38:31;5.63;;;3.38;;
74044;SDS011;62389;51.412;5.436;2022-07-23T08:40:56;5.75;;;3.63;;
74044;SDS011;62389;51.412;5.436;2022-07-23T08:43:25;5.00;;;3.17;;
74044;SDS011;62389;51.412;5.436;2022-07-23T08:45:52;6.70;;;3.30;;
74044;SDS011;62389;51.412;5.436;2022-07-23T08:48:18;6.80;;;3.47;;
74044;SDS011;62389;51.412;5.436;2022-07-23T08:50:47;6.18;;;3.13;;
74044;SDS011;62389;51.412;5.436;2022-07-23T08:53:13;6.93;;;4.00;;
74044;SDS011;62389;51.412;5.436;2022-07-23T08:55:39;5.65;;;3.35;;
74044;SDS011;62389;51.412;5.436;2022-07-23T08:58:04;5.13;;;2.90;;
74044;SDS011;62389;51.412;5.436;2022-07-23T09:00:29;6.32;;;3.40;;
74044;SDS011;62389;51.412;5.436;2022-07-23T09:02:55;6.05;;;3.45;;
74044;SDS011;62389;51.412;5.436;2022-07-23T09:05:21;8.23;;;3.85;;
74044;SDS011;62389;51.412;5.436;2022-07-23T09:10:30;7.97;;;3.33;;
74044;SDS011;62389;51.412;5.436;2022-07-23T09:13:10;4.20;;;3.22;;
74044;SDS011;62389;51.412;5.436;2022-07-23T09:15:50;5.50;;;3.17;;
74044;SDS011;62389;51.412;5.436;2022-07-23T09:18:16;6.45;;;3.60;;
74044;SDS011;62389;51.412;5.436;2022-07-23T09:20:41;6.28;;;3.47;;
74044;SDS011;62389;51.412;5.436;2022-07-23T09:23:06;7.38;;;3.30;;
74044;SDS011;62389;51.412;5.436;2022-07-23T09:25:31;5.23;;;3.33;;
74044;SDS011;62389;51.412;5.436;2022-07-23T09:27:58;6.37;;;3.50;;
74044;SDS011;62389;51.412;5.436;2022-07-23T09:30:27;4.90;;;3.20;;
74044;SDS011;62389;51.412;5.436;2022-07-23T09:33:12;4.45;;;3.05;;
74044;SDS011;62389;51.412;5.436;2022-07-23T09:38:02;4.38;;;2.88;;
74044;SDS011;62389;51.412;5.436;2022-07-23T09:40:27;7.20;;;2.85;;
74044;SDS011;62389;51.412;5.436;2022-07-23T09:42:55;4.57;;;3.10;;
74044;SDS011;62389;51.412;5.436;2022-07-23T09:45:21;5.45;;;3.28;;
74044;SDS011;62389;51.412;5.436;2022-07-23T09:47:46;6.87;;;3.33;;
74044;SDS011;62389;51.412;5.436;2022-07-23T09:50:11;6.45;;;3.35;;
74044;SDS011;62389;51.412;5.436;2022-07-23T09:55:07;4.85;;;3.30;;
74044;SDS011;62389;51.412;5.436;2022-07-23T09:57:33;3.55;;;2.70;;
74044;SDS011;62389;51.412;5.436;2022-07-23T10:00:00;5.87;;;3.30;;
74044;SDS011;62389;51.412;5.436;2022-07-23T10:02:25;5.95;;;3.53;;
74044;SDS011;62389;51.412;5.436;2022-07-23T10:04:53;6.32;;;3.40;;
74044;SDS011;62389;51.412;5.436;2022-07-23T10:07:18;4.95;;;2.75;;
74044;SDS011;62389;51.412;5.436;2022-07-23T10:09:46;5.72;;;3.20;;
74044;SDS011;62389;51.412;5.436;2022-07-23T10:14:38;5.18;;;2.80;;
74044;SDS011;62389;51.412;5.436;2022-07-23T10:19:28;4.90;;;3.13;;
74044;SDS011;62389;51.412;5.436;2022-07-23T10:22:04;6.20;;;3.03;;
74044;SDS011;62389;51.412;5.436;2022-07-23T10:32:30;4.03;;;2.73;;
74044;SDS011;62389;51.412;5.436;2022-07-23T10:35:22;4.47;;;2.75;;
74044;SDS011;62389;51.412;5.436;2022-07-23T10:37:51;4.10;;;2.60;;
74044;SDS011;62389;51.412;5.436;2022-07-23T10:40:19;3.75;;;2.58;;
74044;SDS011;62389;51.412;5.436;2022-07-23T10:42:46;4.20;;;2.80;;
74044;SDS011;62389;51.412;5.436;2022-07-23T10:47:55;5.28;;;3.70;;
74044;SDS011;62389;51.412;5.436;2022-07-23T10:50:22;7.53;;;4.80;;
74044;SDS011;62389;51.412;5.436;2022-07-23T10:57:57;4.67;;;3.30;;
74044;SDS011;62389;51.412;5.436;2022-07-23T11:00:23;5.72;;;3.83;;
74044;SDS011;62389;51.412;5.436;2022-07-23T11:02:52;5.53;;;3.97;;
74044;SDS011;62389;51.412;5.436;2022-07-23T11:05:19;5.88;;;3.60;;
74044;SDS011;62389;51.412;5.436;2022-07-23T11:10:09;6.43;;;3.58;;
74044;SDS011;62389;51.412;5.436;2022-07-23T11:12:54;6.50;;;3.90;;
74044;SDS011;62389;51.412;5.436;2022-07-23T11:15:19;4.80;;;3.23;;
74044;SDS011;62389;51.412;5.436;2022-07-23T11:20:22;5.25;;;2.97;;
74044;SDS011;62389;51.412;5.436;2022-07-23T11:22:49;5.18;;;3.35;;
74044;SDS011;62389;51.412;5.436;2022-07-23T11:27:46;5.80;;;3.15;;
74044;SDS011;62389;51.412;5.436;2022-07-23T11:32:52;4.05;;;2.78;;
74044;SDS011;62389;51.412;5.436;2022-07-23T11:35:24;149.30;;;21.70;;
74044;SDS011;62389;51.412;5.436;2022-07-23T11:37:50;5.25;;;3.00;;
74044;SDS011;62389;51.412;5.436;2022-07-23T11:40:19;4.03;;;2.40;;
74044;SDS011;62389;51.412;5.436;2022-07-23T11:43:00;9.32;;;2.70;;
74044;SDS011;62389;51.412;5.436;2022-07-23T11:45:36;4.75;;;2.45;;
74044;SDS011;62389;51.412;5.436;2022-07-23T11:48:03;4.57;;;2.58;;
74044;SDS011;62389;51.412;5.436;2022-07-23T11:50:28;4.55;;;2.78;;
74044;SDS011;62389;51.412;5.436;2022-07-23T11:52:54;3.70;;;2.63;;
74044;SDS011;62389;51.412;5.436;2022-07-23T11:55:19;4.20;;;2.90;;
74044;SDS011;62389;51.412;5.436;2022-07-23T11:57:44;5.77;;;2.97;;
74044;SDS011;62389;51.412;5.436;2022-07-23T12:00:11;4.60;;;2.35;;
74044;SDS011;62389;51.412;5.436;2022-07-23T12:02:42;3.58;;;2.30;;
74044;SDS011;62389;51.412;5.436;2022-07-23T12:05:07;2.75;;;1.92;;
74044;SDS011;62389;51.412;5.436;2022-07-23T12:07:37;4.35;;;2.30;;
74044;SDS011;62389;51.412;5.436;2022-07-23T12:12:41;2.65;;;1.90;;
74044;SDS011;62389;51.412;5.436;2022-07-23T12:15:07;3.45;;;2.17;;
74044;SDS011;62389;51.412;5.436;2022-07-23T12:17:34;4.75;;;2.25;;
74044;SDS011;62389;51.412;5.436;2022-07-23T12:20:00;5.80;;;2.22;;
74044;SDS011;62389;51.412;5.436;2022-07-23T12:22:26;3.38;;;2.20;;
74044;SDS011;62389;51.412;5.436;2022-07-23T12:24:59;3.45;;;2.13;;
74044;SDS011;62389;51.412;5.436;2022-07-23T12:27:25;2.95;;;2.20;;
74044;SDS011;62389;51.412;5.436;2022-07-23T12:29:50;3.00;;;2.28;;
74044;SDS011;62389;51.412;5.436;2022-07-23T12:32:16;4.35;;;2.20;;
74044;SDS011;62389;51.412;5.436;2022-07-23T12:37:07;3.50;;;2.28;;
74044;SDS011;62389;51.412;5.436;2022-07-23T12:39:32;5.80;;;2.20;;
74044;SDS011;62389;51.412;5.436;2022-07-23T12:41:57;3.93;;;2.40;;
74044;SDS011;62389;51.412;5.436;2022-07-23T12:44:23;5.73;;;2.10;;
74044;SDS011;62389;51.412;5.436;2022-07-23T12:46:54;3.90;;;2.23;;
74044;SDS011;62389;51.412;5.436;2022-07-23T12:49:25;4.70;;;2.28;;
74044;SDS011;62389;51.412;5.436;2022-07-23T12:51:51;2.67;;;2.10;;
74044;SDS011;62389;51.412;5.436;2022-07-23T12:54:16;4.07;;;2.23;;
74044;SDS011;62389;51.412;5.436;2022-07-23T12:56:44;3.70;;;2.00;;
74044;SDS011;62389;51.412;5.436;2022-07-23T12:59:10;4.13;;;2.47;;
74044;SDS011;62389;51.412;5.436;2022-07-23T13:01:37;5.50;;;2.50;;
74044;SDS011;62389;51.412;5.436;2022-07-23T13:06:29;3.13;;;2.30;;
74044;SDS011;62389;51.412;5.436;2022-07-23T13:11:19;3.03;;;2.00;;
74044;SDS011;62389;51.412;5.436;2022-07-23T13:13:44;3.53;;;2.20;;
74044;SDS011;62389;51.412;5.436;2022-07-23T13:16:09;3.23;;;2.37;;
74044;SDS011;62389;51.412;5.436;2022-07-23T13:18:35;3.67;;;2.47;;
74044;SDS011;62389;51.412;5.436;2022-07-23T13:21:00;3.57;;;2.40;;
74044;SDS011;62389;51.412;5.436;2022-07-23T13:23:25;4.50;;;2.27;;
74044;SDS011;62389;51.412;5.436;2022-07-23T13:25:51;3.13;;;2.10;;
74044;SDS011;62389;51.412;5.436;2022-07-23T13:28:16;4.28;;;2.10;;
74044;SDS011;62389;51.412;5.436;2022-07-23T13:33:08;3.75;;;2.30;;
74044;SDS011;62389;51.412;5.436;2022-07-23T13:35:34;3.03;;;2.03;;
74044;SDS011;62389;51.412;5.436;2022-07-23T13:37:59;2.97;;;2.20;;
74044;SDS011;62389;51.412;5.436;2022-07-23T13:40:25;3.67;;;2.33;;
74044;SDS011;62389;51.412;5.436;2022-07-23T13:42:50;5.88;;;2.47;;
74044;SDS011;62389;51.412;5.436;2022-07-23T13:45:15;4.70;;;2.90;;
74044;SDS011;62389;51.412;5.436;2022-07-23T13:47:40;3.20;;;2.53;;
74044;SDS011;62389;51.412;5.436;2022-07-23T13:50:06;3.50;;;2.37;;
74044;SDS011;62389;51.412;5.436;2022-07-23T13:52:31;3.92;;;2.15;;
74044;SDS011;62389;51.412;5.436;2022-07-23T13:54:58;3.90;;;2.20;;
74044;SDS011;62389;51.412;5.436;2022-07-23T13:57:24;4.40;;;2.60;;
74044;SDS011;62389;51.412;5.436;2022-07-23T13:59:49;4.67;;;2.00;;
74044;SDS011;62389;51.412;5.436;2022-07-23T14:02:15;3.60;;;2.47;;
74044;SDS011;62389;51.412;5.436;2022-07-23T14:04:41;3.00;;;2.30;;
74044;SDS011;62389;51.412;5.436;2022-07-23T14:07:06;3.57;;;2.40;;
74044;SDS011;62389;51.412;5.436;2022-07-23T14:09:32;3.37;;;2.50;;
74044;SDS011;62389;51.412;5.436;2022-07-23T14:11:58;3.15;;;2.22;;
74044;SDS011;62389;51.412;5.436;2022-07-23T14:14:24;2.93;;;2.50;;
74044;SDS011;62389;51.412;5.436;2022-07-23T14:16:49;4.43;;;2.60;;
74044;SDS011;62389;51.412;5.436;2022-07-23T14:19:14;5.53;;;2.33;;
74044;SDS011;62389;51.412;5.436;2022-07-23T14:21:39;4.13;;;2.50;;
74044;SDS011;62389;51.412;5.436;2022-07-23T14:24:05;3.37;;;2.23;;
74044;SDS011;62389;51.412;5.436;2022-07-23T14:26:31;5.88;;;2.55;;
74044;SDS011;62389;51.412;5.436;2022-07-23T14:28:56;6.00;;;2.93;;
74044;SDS011;62389;51.412;5.436;2022-07-23T14:31:22;3.93;;;2.70;;
74044;SDS011;62389;51.412;5.436;2022-07-23T14:33:47;3.90;;;2.60;;
74044;SDS011;62389;51.412;5.436;2022-07-23T14:36:12;4.80;;;2.50;;
74044;SDS011;62389;51.412;5.436;2022-07-23T14:38:38;4.53;;;2.92;;
74044;SDS011;62389;51.412;5.436;2022-07-23T14:41:03;4.20;;;3.13;;
74044;SDS011;62389;51.412;5.436;2022-07-23T14:43:31;4.13;;;2.75;;
74044;SDS011;62389;51.412;5.436;2022-07-23T14:45:56;4.88;;;3.08;;
74044;SDS011;62389;51.412;5.436;2022-07-23T14:48:22;4.30;;;2.73;;
74044;SDS011;62389;51.412;5.436;2022-07-23T14:50:47;4.88;;;3.10;;
74044;SDS011;62389;51.412;5.436;2022-07-23T14:53:12;4.87;;;2.73;;
74044;SDS011;62389;51.412;5.436;2022-07-23T14:55:37;7.50;;;2.60;;
74044;SDS011;62389;51.412;5.436;2022-07-23T14:58:03;5.63;;;3.13;;
74044;SDS011;62389;51.412;5.436;2022-07-23T15:00:28;5.37;;;3.20;;
74044;SDS011;62389;51.412;5.436;2022-07-23T15:02:53;4.22;;;2.97;;
74044;SDS011;62389;51.412;5.436;2022-07-23T15:05:19;6.15;;;2.95;;
74044;SDS011;62389;51.412;5.436;2022-07-23T15:07:44;3.70;;;2.88;;
74044;SDS011;62389;51.412;5.436;2022-07-23T15:10:09;4.10;;;2.15;;
74044;SDS011;62389;51.412;5.436;2022-07-23T15:12:34;4.20;;;2.70;;
74044;SDS011;62389;51.412;5.436;2022-07-23T15:15:00;4.37;;;3.40;;
74044;SDS011;62389;51.412;5.436;2022-07-23T15:17:25;6.28;;;3.25;;
74044;SDS011;62389;51.412;5.436;2022-07-23T15:19:50;5.18;;;3.17;;
74044;SDS011;62389;51.412;5.436;2022-07-23T15:22:16;5.72;;;3.13;;
74044;SDS011;62389;51.412;5.436;2022-07-23T15:24:41;5.18;;;3.00;;
74044;SDS011;62389;51.412;5.436;2022-07-23T15:27:06;6.33;;;3.30;;
74044;SDS011;62389;51.412;5.436;2022-07-23T15:29:32;5.20;;;3.10;;